createdAt,value
2023-10-20T00:01:34.731Z,17.58
2023-10-20T00:04:04.792Z,17.50
2023-10-20T00:06:31.686Z,17.52
2023-10-20T00:08:59.564Z,17.46
2023-10-20T00:11:27.296Z,17.48
2023-10-20T00:13:55.286Z,17.50
2023-10-20T00:16:30.039Z,17.46
2023-10-20T00:18:57.894Z,17.41
2023-10-20T00:21:27.562Z,17.47
2023-10-20T00:23:54.400Z,17.48
2023-10-20T00:26:21.137Z,17.48
2023-10-20T00:28:47.805Z,17.40
2023-10-20T00:31:14.754Z,17.24
2023-10-20T00:33:41.536Z,17.24
2023-10-20T00:36:09.634Z,17.16
2023-10-20T00:38:36.623Z,17.02
2023-10-20T00:41:03.491Z,17.07
2023-10-20T00:43:37.285Z,17.09
2023-10-20T00:46:05.969Z,17.13
2023-10-20T00:48:34.009Z,17.12
2023-10-20T00:51:06.854Z,17.15
2023-10-20T00:53:36.287Z,17.21
2023-10-20T00:56:05.821Z,17.14
2023-10-20T00:58:33.386Z,16.98
2023-10-20T01:01:00.346Z,16.84
2023-10-20T01:03:28.766Z,17.01
2023-10-20T01:05:57.390Z,17.20
2023-10-20T01:08:24.762Z,17.14
2023-10-20T01:10:54.477Z,16.72
2023-10-20T01:13:23.106Z,16.97
2023-10-20T01:15:50.471Z,17.17
2023-10-20T01:18:17.332Z,17.14
2023-10-20T01:20:46.177Z,17.20
2023-10-20T01:23:12.941Z,17.17
2023-10-20T01:25:39.620Z,17.11
2023-10-20T01:28:06.464Z,17.02
2023-10-20T01:30:33.212Z,17.02
2023-10-20T01:33:00.766Z,16.88
2023-10-20T01:35:27.692Z,16.86
2023-10-20T01:37:54.513Z,16.88
2023-10-20T01:40:21.311Z,16.80
2023-10-20T01:42:47.988Z,16.94
2023-10-20T01:45:14.658Z,16.87
2023-10-20T01:47:41.691Z,16.94
2023-10-20T01:50:09.121Z,16.96
2023-10-20T01:52:36.059Z,16.79
2023-10-20T01:55:02.812Z,16.64
2023-10-20T01:57:29.552Z,16.59
2023-10-20T01:59:56.212Z,16.70
2023-10-20T02:02:23.073Z,16.59
2023-10-20T02:04:49.767Z,16.25
2023-10-20T02:07:16.569Z,16.50
2023-10-20T02:09:43.321Z,16.54
2023-10-20T02:12:11.613Z,16.48
2023-10-20T02:14:38.372Z,16.61
2023-10-20T02:17:05.238Z,16.68
2023-10-20T02:19:32.098Z,16.76
2023-10-20T02:22:00.822Z,16.76
2023-10-20T02:24:27.778Z,16.72
2023-10-20T02:26:55.094Z,16.77
2023-10-20T02:29:22.029Z,16.80
2023-10-20T02:31:48.726Z,16.72
2023-10-20T02:34:15.430Z,16.67
2023-10-20T02:36:43.613Z,16.75
2023-10-20T02:39:11.853Z,16.65
2023-10-20T02:41:38.509Z,16.75
2023-10-20T02:44:05.559Z,16.78
2023-10-20T02:46:32.409Z,16.76
2023-10-20T02:48:59.453Z,16.68
2023-10-20T02:51:26.217Z,16.72
2023-10-20T02:53:52.906Z,16.68
2023-10-20T02:56:21.064Z,16.73
2023-10-20T02:58:48.583Z,16.79
2023-10-20T03:01:18.363Z,16.65
2023-10-20T03:03:45.853Z,16.64
2023-10-20T03:06:12.875Z,16.49
2023-10-20T03:08:40.898Z,16.69
2023-10-20T03:11:09.508Z,16.47
2023-10-20T03:13:36.557Z,16.51
2023-10-20T03:16:03.336Z,16.43
2023-10-20T03:18:30.081Z,16.47
2023-10-20T03:21:03.902Z,16.15
2023-10-20T03:23:32.173Z,16.35
2023-10-20T03:25:58.970Z,16.35
2023-10-20T03:28:25.808Z,16.42
2023-10-20T03:30:52.832Z,16.44
2023-10-20T03:33:20.330Z,16.51
2023-10-20T03:35:47.525Z,16.58
2023-10-20T03:38:15.738Z,16.41
2023-10-20T03:40:43.119Z,16.49
2023-10-20T03:43:11.057Z,16.50
2023-10-20T03:45:53.249Z,16.50
2023-10-20T03:48:24.867Z,16.43
2023-10-20T03:50:53.344Z,16.48
2023-10-20T03:53:23.671Z,16.49
2023-10-20T03:56:00.763Z,16.42
2023-10-20T03:58:29.761Z,16.35
2023-10-20T04:00:58.740Z,16.19
2023-10-20T04:03:28.762Z,16.22
2023-10-20T04:05:55.512Z,16.10
2023-10-20T04:08:24.095Z,16.08
2023-10-20T04:11:00.622Z,15.47
2023-10-20T04:13:30.653Z,15.65
2023-10-20T04:15:57.567Z,15.88
2023-10-20T04:18:24.706Z,16.11
2023-10-20T04:20:52.034Z,15.87
2023-10-20T04:23:19.004Z,16.00
2023-10-20T04:25:55.117Z,16.05
2023-10-20T04:28:33.537Z,16.03
2023-10-20T04:31:19.204Z,16.08
2023-10-20T04:34:04.590Z,16.15
2023-10-20T04:36:49.945Z,16.20
2023-10-20T04:39:35.559Z,16.32
2023-10-20T04:42:04.727Z,16.35
2023-10-20T04:44:49.725Z,16.31
2023-10-20T04:47:26.291Z,16.39
2023-10-20T04:50:16.548Z,16.38
2023-10-20T04:53:03.148Z,16.34
2023-10-20T04:55:32.763Z,16.10
2023-10-20T04:58:22.811Z,15.95
2023-10-20T05:00:57.887Z,15.63
2023-10-20T05:03:32.901Z,15.52
2023-10-20T05:06:20.812Z,15.78
2023-10-20T05:08:48.689Z,15.98
2023-10-20T05:11:16.693Z,15.99
2023-10-20T05:13:43.781Z,16.26
2023-10-20T05:16:10.839Z,16.35
2023-10-20T05:18:41.358Z,16.20
2023-10-20T05:21:14.880Z,15.77
2023-10-20T05:23:42.413Z,15.37
2023-10-20T05:26:12.371Z,15.44
2023-10-20T05:28:39.174Z,15.64
2023-10-20T05:31:06.116Z,15.88
2023-10-20T05:33:32.861Z,16.01
2023-10-20T05:36:05.072Z,15.93
2023-10-20T05:38:33.345Z,16.02
2023-10-20T05:41:01.014Z,16.26
2023-10-20T05:43:28.806Z,16.36
2023-10-20T05:45:55.643Z,16.46
2023-10-20T05:48:22.519Z,16.49
2023-10-20T05:51:01.140Z,15.66
2023-10-20T05:53:28.001Z,15.61
2023-10-20T05:55:54.747Z,16.16
2023-10-20T05:58:21.764Z,15.40
2023-10-20T06:01:02.411Z,15.74
2023-10-20T06:03:30.541Z,16.19
2023-10-20T06:06:01.897Z,16.43
2023-10-20T06:08:30.480Z,16.51
2023-10-20T06:11:04.835Z,16.67
2023-10-20T06:13:33.972Z,16.77
2023-10-20T06:16:12.419Z,16.91
2023-10-20T06:18:40.838Z,17.03
2023-10-20T06:21:15.182Z,16.49
2023-10-20T06:23:42.377Z,16.71
2023-10-20T06:26:09.312Z,16.80
2023-10-20T06:28:35.946Z,16.69
2023-10-20T06:31:16.640Z,17.02
2023-10-20T06:33:44.607Z,16.72
2023-10-20T06:36:19.847Z,16.84
2023-10-20T06:38:46.730Z,17.29
2023-10-20T06:41:17.343Z,17.43
2023-10-20T06:43:48.451Z,17.32
2023-10-20T06:46:15.433Z,17.20
2023-10-20T06:48:42.182Z,17.55
2023-10-20T06:51:08.876Z,18.17
2023-10-20T06:53:35.737Z,18.22
2023-10-20T06:56:15.271Z,18.35
2023-10-20T06:58:43.632Z,18.31
2023-10-20T07:01:10.330Z,18.07
2023-10-20T07:03:37.133Z,18.70
2023-10-20T07:06:08.610Z,18.94
2023-10-20T07:08:35.563Z,19.16
2023-10-20T07:11:03.772Z,18.42
2023-10-20T07:13:32.896Z,18.74
2023-10-20T07:15:59.765Z,17.70
2023-10-20T07:18:26.415Z,18.67
2023-10-20T07:20:56.068Z,18.89
2023-10-20T07:23:24.646Z,19.13
2023-10-20T07:25:51.444Z,19.26
2023-10-20T07:28:18.239Z,19.10
2023-10-20T07:30:44.906Z,19.13
2023-10-20T07:33:12.213Z,19.23
2023-10-20T07:35:40.204Z,18.52
2023-10-20T07:38:07.004Z,18.61
2023-10-20T07:40:36.449Z,18.99
2023-10-20T07:43:07.431Z,19.04
2023-10-20T07:45:43.792Z,17.98
2023-10-20T07:48:12.206Z,19.09
2023-10-20T07:50:39.193Z,19.26
2023-10-20T07:53:06.561Z,19.02
2023-10-20T07:55:33.347Z,18.56
2023-10-20T07:58:00.166Z,19.33
2023-10-20T08:00:26.866Z,19.35
2023-10-20T08:02:55.593Z,19.51
2023-10-20T08:05:26.815Z,18.98
2023-10-20T08:07:54.536Z,19.04
2023-10-20T08:10:23.047Z,19.30
2023-10-20T08:12:50.508Z,19.54
2023-10-20T08:15:17.625Z,19.53
2023-10-20T08:17:46.824Z,18.56
2023-10-20T08:20:14.168Z,19.62
2023-10-20T08:22:41.732Z,19.92
2023-10-20T08:25:10.337Z,19.67
2023-10-20T08:27:37.939Z,19.94
2023-10-20T08:30:06.269Z,19.51
2023-10-20T08:32:33.433Z,19.77
2023-10-20T08:35:00.350Z,20.01
2023-10-20T08:37:27.277Z,20.07
2023-10-20T08:39:55.697Z,19.95
2023-10-20T08:42:23.162Z,20.09
2023-10-20T08:44:51.023Z,20.32
2023-10-20T08:47:18.600Z,20.34
2023-10-20T08:49:47.255Z,20.37
2023-10-20T08:52:14.729Z,20.11
2023-10-20T08:54:42.410Z,19.72
2023-10-20T08:57:09.613Z,20.08
2023-10-20T08:59:37.765Z,20.32
2023-10-20T09:02:05.320Z,19.43
2023-10-20T09:04:32.420Z,20.15
2023-10-20T09:07:02.822Z,19.86
2023-10-20T09:09:30.617Z,20.66
2023-10-20T09:11:57.419Z,20.74
2023-10-20T09:14:26.118Z,20.90
2023-10-20T09:16:55.151Z,20.24
2023-10-20T09:19:21.845Z,20.74
2023-10-20T09:21:48.607Z,20.06
2023-10-20T09:24:16.199Z,20.28
2023-10-20T09:26:43.065Z,20.41
2023-10-20T09:29:10.834Z,20.96
2023-10-20T09:31:38.926Z,21.15
2023-10-20T09:34:06.045Z,21.15
2023-10-20T09:36:34.044Z,20.04
2023-10-20T09:39:02.285Z,20.46
2023-10-20T09:41:30.365Z,20.72
2023-10-20T09:44:08.249Z,20.47
2023-10-20T09:46:38.141Z,21.18
2023-10-20T09:49:15.872Z,21.36
2023-10-20T09:51:49.435Z,20.85
2023-10-20T09:54:20.289Z,21.38
2023-10-20T09:56:47.965Z,21.37
2023-10-20T09:59:22.148Z,21.49
2023-10-20T10:01:49.146Z,21.88
2023-10-20T10:04:15.858Z,21.46
2023-10-20T10:06:46.865Z,22.03
2023-10-20T10:09:16.372Z,21.59
2023-10-20T10:11:46.951Z,21.86
2023-10-20T10:14:24.386Z,22.10
2023-10-20T10:16:56.325Z,22.48
2023-10-20T10:19:28.233Z,22.18
2023-10-20T10:22:02.612Z,22.50
2023-10-20T10:24:35.941Z,22.82
2023-10-20T10:27:08.011Z,22.91
2023-10-20T10:29:52.244Z,22.05
2023-10-20T10:32:20.913Z,22.16
2023-10-20T10:34:50.568Z,22.67
2023-10-20T10:37:36.495Z,22.82
2023-10-20T10:40:10.712Z,22.58
2023-10-20T10:42:41.599Z,22.81
2023-10-20T10:45:16.056Z,23.43
2023-10-20T10:47:44.806Z,23.32
2023-10-20T10:50:11.706Z,22.76
2023-10-20T10:52:38.421Z,22.75
2023-10-20T10:55:05.478Z,22.71
2023-10-20T10:57:32.570Z,23.12
2023-10-20T11:00:01.856Z,23.67
2023-10-20T11:02:29.514Z,23.59
2023-10-20T11:04:56.405Z,23.65
2023-10-20T11:07:23.813Z,23.64
2023-10-20T11:09:52.528Z,23.61
2023-10-20T11:12:19.226Z,24.17
2023-10-20T11:14:45.919Z,24.11
2023-10-20T11:17:14.933Z,24.27
2023-10-20T11:19:42.431Z,24.43
2023-10-20T11:22:19.105Z,24.40
2023-10-20T11:24:53.850Z,23.58
2023-10-20T11:27:21.115Z,24.54
2023-10-20T11:29:58.326Z,24.53
2023-10-20T11:32:27.278Z,24.95
2023-10-20T11:34:54.325Z,24.99
2023-10-20T11:37:21.044Z,25.02
2023-10-20T11:39:48.337Z,25.19
2023-10-20T11:42:15.248Z,24.84
2023-10-20T11:44:42.193Z,25.12
2023-10-20T11:47:08.909Z,25.26
2023-10-20T11:49:35.540Z,25.45
2023-10-20T11:52:08.695Z,25.44
2023-10-20T11:54:35.496Z,25.69
2023-10-20T11:57:03.093Z,25.61
2023-10-20T11:59:29.856Z,25.03
2023-10-20T12:01:56.745Z,25.15
2023-10-20T12:04:23.452Z,25.61
2023-10-20T12:06:50.168Z,25.83
2023-10-20T12:09:20.953Z,25.92
2023-10-20T12:11:48.458Z,25.66
2023-10-20T12:14:16.299Z,25.97
2023-10-20T12:16:44.010Z,26.31
2023-10-20T12:19:10.797Z,26.44
2023-10-20T12:21:37.505Z,26.78
2023-10-20T12:24:05.573Z,26.83
2023-10-20T12:26:32.370Z,26.70
2023-10-20T12:28:59.062Z,26.70
2023-10-20T12:31:26.034Z,26.87
2023-10-20T12:33:52.893Z,26.79
2023-10-20T12:36:19.648Z,26.56
2023-10-20T12:38:46.758Z,27.19
2023-10-20T12:41:17.084Z,27.34
2023-10-20T12:43:45.722Z,27.33
2023-10-20T12:46:12.867Z,27.30
2023-10-20T12:48:42.533Z,27.30
2023-10-20T12:51:13.656Z,27.18
2023-10-20T12:53:42.035Z,27.21
2023-10-20T12:56:09.073Z,26.44
2023-10-20T12:58:39.683Z,26.84
2023-10-20T13:01:07.711Z,27.28
2023-10-20T13:03:34.753Z,27.34
2023-10-20T13:06:01.748Z,27.33
2023-10-20T13:08:28.616Z,27.32
2023-10-20T13:10:55.350Z,27.39
2023-10-20T13:13:22.127Z,27.40
2023-10-20T13:15:48.811Z,27.78
2023-10-20T13:18:16.860Z,27.63
2023-10-20T13:20:46.713Z,27.96
2023-10-20T13:23:14.064Z,27.04
2023-10-20T13:25:40.824Z,27.56
2023-10-20T13:31:16.524Z,27.54
2023-10-20T13:33:46.397Z,28.02
2023-10-20T13:36:13.260Z,27.73
2023-10-20T13:38:40.213Z,27.87
2023-10-20T13:41:07.073Z,28.01
2023-10-20T13:43:36.777Z,27.72
2023-10-20T13:48:55.805Z,27.27
2023-10-20T13:51:22.526Z,27.55
2023-10-20T13:53:49.191Z,26.79
2023-10-20T13:56:16.790Z,27.90
2023-10-20T13:58:43.523Z,27.73
2023-10-20T14:01:10.333Z,27.62
2023-10-20T14:03:37.356Z,27.48
2023-10-20T14:06:07.856Z,28.01
2023-10-20T14:08:35.411Z,27.00
2023-10-20T14:11:05.292Z,27.03
2023-10-20T14:16:25.875Z,27.46
2023-10-20T14:18:52.646Z,27.46
2023-10-20T14:21:19.371Z,27.14
2023-10-20T14:23:46.013Z,27.63
2023-10-20T14:26:12.789Z,26.74
2023-10-20T14:28:39.512Z,27.65
2023-10-20T14:31:07.039Z,28.14
2023-10-20T14:33:35.394Z,27.89
2023-10-20T14:36:02.774Z,27.59
2023-10-20T14:38:33.424Z,27.08
2023-10-20T14:41:08.605Z,27.48
2023-10-20T14:43:37.225Z,27.18
2023-10-20T14:46:06.027Z,26.76
2023-10-20T14:48:34.273Z,27.35
2023-10-20T14:51:05.494Z,27.46
2023-10-20T14:53:32.262Z,26.69
2023-10-20T14:55:58.964Z,27.35
2023-10-20T15:01:16.983Z,26.71
2023-10-20T15:03:44.399Z,27.21
2023-10-20T15:06:11.292Z,26.82
2023-10-20T15:08:38.400Z,26.76
2023-10-20T15:11:09.018Z,26.14
2023-10-20T15:13:36.346Z,26.91
2023-10-20T15:16:06.222Z,26.95
2023-10-20T15:18:33.168Z,27.10
2023-10-20T15:21:00.176Z,25.55
2023-10-20T15:23:27.076Z,26.04
2023-10-20T15:25:53.824Z,26.86
2023-10-20T15:28:22.116Z,26.51
2023-10-20T15:30:49.280Z,27.03
2023-10-20T15:33:18.979Z,27.20
2023-10-20T15:35:47.748Z,26.57
2023-10-20T15:38:14.663Z,26.90
2023-10-20T15:40:41.753Z,26.99
2023-10-20T15:43:08.499Z,26.52
2023-10-20T15:45:35.193Z,26.41
2023-10-20T15:48:07.767Z,26.46
2023-10-20T15:51:05.405Z,26.47
2023-10-20T15:53:57.700Z,27.07
2023-10-20T15:59:15.774Z,27.26
2023-10-20T16:01:42.762Z,26.79
2023-10-20T16:04:09.547Z,26.91
2023-10-20T16:06:36.513Z,26.56
2023-10-20T16:09:06.835Z,26.48
2023-10-20T16:11:34.222Z,26.14
2023-10-20T16:14:04.366Z,26.43
2023-10-20T16:16:32.412Z,26.46
2023-10-20T16:18:59.221Z,26.52
2023-10-20T16:21:26.006Z,26.73
2023-10-20T16:23:52.766Z,27.20
2023-10-20T16:26:19.545Z,27.36
2023-10-20T16:28:46.193Z,27.49
2023-10-20T16:31:13.156Z,27.39
2023-10-20T16:33:39.922Z,26.83
2023-10-20T16:39:27.226Z,26.72
2023-10-20T16:41:54.032Z,26.83
2023-10-20T16:44:20.796Z,27.38
2023-10-20T16:46:48.320Z,27.03
2023-10-20T16:49:15.073Z,27.23
2023-10-20T16:51:44.725Z,27.38
2023-10-20T16:54:12.496Z,27.12
2023-10-20T16:56:39.368Z,26.90
2023-10-20T17:01:57.563Z,26.80
2023-10-20T17:07:30.202Z,27.15
2023-10-20T17:09:58.938Z,26.56
2023-10-20T17:12:25.709Z,27.17
2023-10-20T17:15:06.479Z,26.91
2023-10-20T17:17:33.294Z,26.53
2023-10-20T17:20:00.067Z,26.21
2023-10-20T17:22:30.409Z,27.20
2023-10-20T17:24:57.138Z,26.81
2023-10-20T17:27:23.854Z,26.84
2023-10-20T17:29:51.476Z,27.19
2023-10-20T17:32:20.042Z,26.29
2023-10-20T17:34:47.167Z,26.90
2023-10-20T17:37:18.393Z,27.12
2023-10-20T17:39:45.184Z,27.04
2023-10-20T17:42:11.953Z,27.21
2023-10-20T17:44:41.870Z,27.10
2023-10-20T17:48:00.074Z,27.10
2023-10-20T17:50:26.798Z,27.23
2023-10-20T17:53:18.479Z,26.75
2023-10-20T17:55:49.306Z,27.26
2023-10-20T17:58:17.012Z,26.79
2023-10-20T18:00:46.095Z,26.95
2023-10-20T18:03:13.284Z,27.37
2023-10-20T18:05:40.672Z,27.53
2023-10-20T18:08:07.735Z,26.86
2023-10-20T18:10:35.765Z,26.66
2023-10-20T18:13:02.486Z,27.30
2023-10-20T18:15:29.083Z,27.40
2023-10-20T18:17:56.076Z,27.51
2023-10-20T18:23:21.523Z,27.68
2023-10-20T18:25:48.463Z,27.22
2023-10-20T18:28:15.255Z,26.55
2023-10-20T18:30:42.435Z,26.69
2023-10-20T18:33:09.638Z,27.19
2023-10-20T18:35:37.868Z,27.07
2023-10-20T18:38:07.234Z,27.54
2023-10-20T18:40:37.252Z,26.99
2023-10-20T18:46:00.269Z,27.44
2023-10-20T18:48:28.191Z,27.15
2023-10-20T18:51:07.844Z,27.48
2023-10-20T18:53:36.183Z,27.49
2023-10-20T18:56:06.447Z,27.80
2023-10-20T18:58:33.086Z,27.91
2023-10-20T19:01:00.906Z,27.69
2023-10-20T19:03:27.804Z,27.45
2023-10-20T19:05:54.692Z,26.99
2023-10-20T19:08:21.916Z,26.71
2023-10-20T19:10:53.199Z,26.59
2023-10-20T19:13:23.182Z,25.93
2023-10-20T19:15:53.973Z,26.07
2023-10-20T19:18:21.617Z,26.85
2023-10-20T19:20:48.655Z,26.73
2023-10-20T19:23:16.302Z,26.79
2023-10-20T19:25:43.085Z,26.49
2023-10-20T19:28:11.051Z,26.51
2023-10-20T19:30:38.052Z,26.44
2023-10-20T19:33:05.188Z,26.58
2023-10-20T19:35:32.582Z,27.01
2023-10-20T19:38:00.318Z,27.13
2023-10-20T19:40:27.678Z,27.14
2023-10-20T19:42:54.911Z,27.18
2023-10-20T19:45:21.577Z,27.29
2023-10-20T19:47:48.719Z,26.78
2023-10-20T19:50:15.854Z,27.17
2023-10-20T19:52:42.762Z,27.36
2023-10-20T19:55:10.123Z,26.89
2023-10-20T19:57:36.885Z,26.32
2023-10-20T20:00:04.602Z,26.49
2023-10-20T20:02:31.956Z,26.83
2023-10-20T20:04:59.049Z,27.35
2023-10-20T20:07:27.893Z,27.23
2023-10-20T20:09:55.713Z,26.85
2023-10-20T20:12:25.352Z,26.96
2023-10-20T20:14:52.226Z,26.92
2023-10-20T20:17:19.807Z,27.26
2023-10-20T20:19:46.624Z,27.38
2023-10-20T20:22:13.309Z,27.06
2023-10-20T20:24:39.992Z,27.10
2023-10-20T20:27:06.776Z,27.14
2023-10-20T20:29:35.206Z,27.05
2023-10-20T20:32:02.045Z,27.32
2023-10-20T20:34:28.741Z,27.64
2023-10-20T20:36:55.372Z,26.60
2023-10-20T20:39:22.037Z,27.19
2023-10-20T20:41:48.669Z,26.78
2023-10-20T20:44:23.245Z,26.94
2023-10-20T20:46:49.972Z,26.99
2023-10-20T20:49:20.570Z,27.13
2023-10-20T20:51:47.871Z,26.19
2023-10-20T20:54:15.093Z,26.82
2023-10-20T20:56:42.028Z,26.68
2023-10-20T20:59:09.594Z,27.47
2023-10-20T21:04:29.185Z,27.09
2023-10-20T21:06:55.934Z,27.30
2023-10-20T21:09:24.702Z,26.93
2023-10-20T21:11:51.491Z,27.04
2023-10-20T21:14:18.645Z,27.43
2023-10-20T21:16:45.603Z,27.61
2023-10-20T21:19:12.413Z,27.25
2023-10-20T21:21:39.142Z,27.43
2023-10-20T21:24:06.883Z,27.06
2023-10-20T21:26:33.798Z,27.08
2023-10-20T21:29:00.544Z,26.84
2023-10-20T21:31:27.588Z,26.19
2023-10-20T21:33:54.332Z,26.15
2023-10-20T21:36:21.042Z,25.50
2023-10-20T21:38:47.785Z,26.24
2023-10-20T21:41:14.497Z,26.70
2023-10-20T21:43:41.258Z,26.25
2023-10-20T21:46:08.376Z,26.39
2023-10-20T21:48:35.212Z,26.81
2023-10-20T21:51:03.808Z,26.86
2023-10-20T21:53:33.908Z,27.25
2023-10-20T21:56:12.882Z,26.69
2023-10-20T21:58:39.677Z,26.65
2023-10-20T22:01:07.796Z,26.42
2023-10-20T22:03:34.704Z,26.56
2023-10-20T22:06:02.440Z,27.04
2023-10-20T22:08:29.235Z,26.49
2023-10-20T22:10:55.948Z,24.93
2023-10-20T22:13:22.788Z,24.90
2023-10-20T22:15:49.497Z,24.74
2023-10-20T22:18:16.822Z,24.86
2023-10-20T22:20:44.380Z,23.65
2023-10-20T22:23:11.771Z,23.56
2023-10-20T22:25:39.783Z,24.31
2023-10-20T22:28:07.254Z,24.56
2023-10-20T22:30:34.044Z,24.21
2023-10-20T22:33:01.044Z,23.74
2023-10-20T22:35:27.827Z,23.26
2023-10-20T22:37:54.725Z,23.82
2023-10-20T22:40:22.390Z,23.67
2023-10-20T22:42:49.183Z,23.44
2023-10-20T22:45:16.078Z,23.26
2023-10-20T22:47:42.940Z,22.72
2023-10-20T22:50:10.199Z,23.23
2023-10-20T22:52:36.872Z,22.97
2023-10-20T22:55:05.016Z,23.75
2023-10-20T22:57:33.246Z,23.64
2023-10-20T23:00:00.209Z,23.01
2023-10-20T23:02:27.192Z,22.62
2023-10-20T23:04:54.169Z,22.95
2023-10-20T23:07:20.808Z,22.77
2023-10-20T23:09:47.801Z,22.98
2023-10-20T23:12:14.629Z,23.72
2023-10-20T23:14:41.515Z,23.70
2023-10-20T23:17:09.198Z,23.44
2023-10-20T23:19:36.039Z,23.15
2023-10-20T23:22:03.136Z,22.99
2023-10-20T23:24:29.817Z,23.23
2023-10-20T23:26:56.547Z,23.22
2023-10-20T23:29:24.494Z,23.59
2023-10-20T23:31:51.227Z,23.38
2023-10-20T23:34:18.123Z,23.26
2023-10-20T23:36:44.778Z,23.13
2023-10-20T23:39:11.508Z,23.12
2023-10-20T23:41:38.311Z,23.04
2023-10-20T23:44:05.354Z,22.88
2023-10-20T23:46:32.150Z,22.79
2023-10-20T23:48:58.954Z,22.32
2023-10-20T23:51:25.710Z,22.67
2023-10-20T23:53:52.427Z,22.98
2023-10-20T23:56:19.067Z,23.02
2023-10-20T23:58:45.800Z,22.98
